sensor_id;sensor_type;location;lat;lon;timestamp;P1;durP1;ratioP1;P2;durP2;ratioP2
30466;SDS011;17258;52.560;13.046;2023-02-28T00:05:18;2.83;;;2.30;;
30466;SDS011;17258;52.560;13.046;2023-02-28T00:15:22;2.30;;;2.15;;
30466;SDS011;17258;52.560;13.046;2023-02-28T00:25:24;2.25;;;2.13;;
30466;SDS011;17258;52.560;13.046;2023-02-28T00:35:25;1.52;;;1.42;;
30466;SDS011;17258;52.560;13.046;2023-02-28T00:45:26;4.27;;;2.10;;
30466;SDS011;17258;52.560;13.046;2023-02-28T00:55:27;3.97;;;1.73;;
30466;SDS011;17258;52.560;13.046;2023-02-28T01:05:27;2.50;;;2.30;;
30466;SDS011;17258;52.560;13.046;2023-02-28T01:15:28;2.20;;;2.10;;
30466;SDS011;17258;52.560;13.046;2023-02-28T01:25:29;1.95;;;1.75;;
30466;SDS011;17258;52.560;13.046;2023-02-28T01:35:32;1.90;;;1.80;;
30466;SDS011;17258;52.560;13.046;2023-02-28T01:45:33;2.42;;;2.22;;
30466;SDS011;17258;52.560;13.046;2023-02-28T01:55:36;2.47;;;2.28;;
30466;SDS011;17258;52.560;13.046;2023-02-28T02:05:38;2.70;;;2.50;;
30466;SDS011;17258;52.560;13.046;2023-02-28T02:15:42;2.80;;;2.20;;
30466;SDS011;17258;52.560;13.046;2023-02-28T02:26:19;2.33;;;2.13;;
30466;SDS011;17258;52.560;13.046;2023-02-28T02:37:00;2.58;;;2.38;;
30466;SDS011;17258;52.560;13.046;2023-02-28T02:47:17;1.67;;;1.58;;
30466;SDS011;17258;52.560;13.046;2023-02-28T02:57:26;2.00;;;1.85;;
30466;SDS011;17258;52.560;13.046;2023-02-28T03:07:34;2.13;;;1.92;;
30466;SDS011;17258;52.560;13.046;2023-02-28T03:17:38;2.43;;;1.87;;
30466;SDS011;17258;52.560;13.046;2023-02-28T03:38:46;2.53;;;2.13;;
30466;SDS011;17258;52.560;13.046;2023-02-28T03:48:51;2.72;;;2.15;;
30466;SDS011;17258;52.560;13.046;2023-02-28T03:59:02;2.08;;;1.88;;
30466;SDS011;17258;52.560;13.046;2023-02-28T04:09:10;3.72;;;2.22;;
30466;SDS011;17258;52.560;13.046;2023-02-28T04:19:13;3.05;;;2.15;;
30466;SDS011;17258;52.560;13.046;2023-02-28T04:29:18;3.25;;;2.30;;
30466;SDS011;17258;52.560;13.046;2023-02-28T04:39:23;1.92;;;1.75;;
30466;SDS011;17258;52.560;13.046;2023-02-28T04:49:24;1.85;;;1.73;;
30466;SDS011;17258;52.560;13.046;2023-02-28T04:59:24;3.23;;;2.07;;
30466;SDS011;17258;52.560;13.046;2023-02-28T05:09:25;11.60;;;7.13;;
30466;SDS011;17258;52.560;13.046;2023-02-28T05:19:26;8.57;;;4.35;;
30466;SDS011;17258;52.560;13.046;2023-02-28T05:29:26;4.50;;;2.80;;
30466;SDS011;17258;52.560;13.046;2023-02-28T05:39:27;3.43;;;3.10;;
30466;SDS011;17258;52.560;13.046;2023-02-28T05:49:28;3.90;;;2.30;;
30466;SDS011;17258;52.560;13.046;2023-02-28T05:59:28;3.10;;;2.70;;
30466;SDS011;17258;52.560;13.046;2023-02-28T06:09:29;2.67;;;2.47;;
30466;SDS011;17258;52.560;13.046;2023-02-28T06:19:31;2.17;;;1.98;;
30466;SDS011;17258;52.560;13.046;2023-02-28T06:29:32;5.78;;;3.17;;
30466;SDS011;17258;52.560;13.046;2023-02-28T06:39:34;3.75;;;3.40;;
30466;SDS011;17258;52.560;13.046;2023-02-28T06:49:35;5.73;;;3.90;;
30466;SDS011;17258;52.560;13.046;2023-02-28T06:59:36;4.07;;;3.65;;
30466;SDS011;17258;52.560;13.046;2023-02-28T07:09:37;3.30;;;3.00;;
30466;SDS011;17258;52.560;13.046;2023-02-28T07:19:39;3.47;;;3.05;;
30466;SDS011;17258;52.560;13.046;2023-02-28T07:29:39;3.97;;;3.53;;
30466;SDS011;17258;52.560;13.046;2023-02-28T07:39:40;3.17;;;2.87;;
30466;SDS011;17258;52.560;13.046;2023-02-28T07:49:44;4.40;;;3.20;;
30466;SDS011;17258;52.560;13.046;2023-02-28T07:59:45;5.00;;;4.50;;
30466;SDS011;17258;52.560;13.046;2023-02-28T08:09:46;4.27;;;3.77;;
30466;SDS011;17258;52.560;13.046;2023-02-28T08:19:46;4.43;;;4.03;;
30466;SDS011;17258;52.560;13.046;2023-02-28T08:29:47;12.20;;;5.07;;
30466;SDS011;17258;52.560;13.046;2023-02-28T08:39:47;9.63;;;9.02;;
30466;SDS011;17258;52.560;13.046;2023-02-28T08:49:48;8.17;;;7.67;;
30466;SDS011;17258;52.560;13.046;2023-02-28T08:59:49;11.57;;;10.87;;
30466;SDS011;17258;52.560;13.046;2023-02-28T09:09:49;13.90;;;13.10;;
30466;SDS011;17258;52.560;13.046;2023-02-28T09:19:57;12.80;;;12.10;;
30466;SDS011;17258;52.560;13.046;2023-02-28T09:29:58;12.67;;;11.97;;
30466;SDS011;17258;52.560;13.046;2023-02-28T09:39:58;5.07;;;4.72;;
30466;SDS011;17258;52.560;13.046;2023-02-28T09:50:15;3.03;;;2.83;;
30466;SDS011;17258;52.560;13.046;2023-02-28T10:00:35;2.63;;;1.58;;
30466;SDS011;17258;52.560;13.046;2023-02-28T10:10:41;3.22;;;1.90;;
30466;SDS011;17258;52.560;13.046;2023-02-28T10:20:46;4.20;;;4.00;;
30466;SDS011;17258;52.560;13.046;2023-02-28T10:30:48;4.53;;;1.77;;
30466;SDS011;17258;52.560;13.046;2023-02-28T10:40:52;11.93;;;11.23;;
30466;SDS011;17258;52.560;13.046;2023-02-28T10:51:13;2.10;;;1.83;;
30466;SDS011;17258;52.560;13.046;2023-02-28T11:01:24;1.92;;;1.80;;
30466;SDS011;17258;52.560;13.046;2023-02-28T11:11:46;11.00;;;10.40;;
30466;SDS011;17258;52.560;13.046;2023-02-28T11:21:52;11.32;;;10.70;;
30466;SDS011;17258;52.560;13.046;2023-02-28T11:32:03;15.10;;;14.20;;
30466;SDS011;17258;52.560;13.046;2023-02-28T11:53:10;3.88;;;1.50;;
30466;SDS011;17258;52.560;13.046;2023-02-28T12:03:54;1.63;;;1.52;;
30466;SDS011;17258;52.560;13.046;2023-02-28T12:35:48;1.83;;;1.73;;
30466;SDS011;17258;52.560;13.046;2023-02-28T12:45:58;1.90;;;1.80;;
30466;SDS011;17258;52.560;13.046;2023-02-28T12:56:16;11.35;;;10.82;;
30466;SDS011;17258;52.560;13.046;2023-02-28T13:16:55;1.55;;;1.42;;
30466;SDS011;17258;52.560;13.046;2023-02-28T13:37:48;1.00;;;1.00;;
30466;SDS011;17258;52.560;13.046;2023-02-28T13:47:27;2.05;;;1.48;;
30466;SDS011;17258;52.560;13.046;2023-02-28T14:08:06;1.52;;;1.42;;
30466;SDS011;17258;52.560;13.046;2023-02-28T14:18:22;1.60;;;1.50;;
30466;SDS011;17258;52.560;13.046;2023-02-28T14:28:42;1.45;;;1.35;;
30466;SDS011;17258;52.560;13.046;2023-02-28T14:39:24;1.55;;;1.30;;
30466;SDS011;17258;52.560;13.046;2023-02-28T14:49:27;1.77;;;1.67;;
30466;SDS011;17258;52.560;13.046;2023-02-28T14:59:42;1.73;;;1.63;;
30466;SDS011;17258;52.560;13.046;2023-02-28T15:09:43;1.63;;;1.53;;
30466;SDS011;17258;52.560;13.046;2023-02-28T15:19:43;1.80;;;1.63;;
30466;SDS011;17258;52.560;13.046;2023-02-28T15:29:54;1.90;;;1.33;;
30466;SDS011;17258;52.560;13.046;2023-02-28T15:39:58;2.70;;;1.75;;
30466;SDS011;17258;52.560;13.046;2023-02-28T15:50:28;1.95;;;1.35;;
30466;SDS011;17258;52.560;13.046;2023-02-28T16:00:29;2.10;;;1.58;;
30466;SDS011;17258;52.560;13.046;2023-02-28T16:10:32;1.25;;;1.15;;
30466;SDS011;17258;52.560;13.046;2023-02-28T16:20:33;1.60;;;1.37;;
30466;SDS011;17258;52.560;13.046;2023-02-28T16:30:33;3.23;;;1.40;;
30466;SDS011;17258;52.560;13.046;2023-02-28T16:40:35;1.13;;;1.07;;
30466;SDS011;17258;52.560;13.046;2023-02-28T16:50:36;1.20;;;1.10;;
30466;SDS011;17258;52.560;13.046;2023-02-28T17:00:37;1.77;;;1.67;;
30466;SDS011;17258;52.560;13.046;2023-02-28T17:10:37;2.13;;;2.03;;
30466;SDS011;17258;52.560;13.046;2023-02-28T17:20:38;5.10;;;1.93;;
30466;SDS011;17258;52.560;13.046;2023-02-28T17:30:39;2.97;;;2.30;;
30466;SDS011;17258;52.560;13.046;2023-02-28T17:40:46;3.40;;;3.00;;
30466;SDS011;17258;52.560;13.046;2023-02-28T17:50:47;4.10;;;3.80;;
30466;SDS011;17258;52.560;13.046;2023-02-28T18:00:48;4.90;;;4.10;;
30466;SDS011;17258;52.560;13.046;2023-02-28T18:10:53;5.63;;;4.80;;
30466;SDS011;17258;52.560;13.046;2023-02-28T18:20:54;7.10;;;5.53;;
30466;SDS011;17258;52.560;13.046;2023-02-28T18:30:54;5.53;;;4.97;;
30466;SDS011;17258;52.560;13.046;2023-02-28T18:40:56;4.73;;;4.33;;
30466;SDS011;17258;52.560;13.046;2023-02-28T18:51:06;4.20;;;3.80;;
30466;SDS011;17258;52.560;13.046;2023-02-28T19:11:23;4.43;;;4.03;;
30466;SDS011;17258;52.560;13.046;2023-02-28T19:21:24;5.50;;;4.28;;
30466;SDS011;17258;52.560;13.046;2023-02-28T19:31:25;5.75;;;4.28;;
30466;SDS011;17258;52.560;13.046;2023-02-28T19:41:25;8.65;;;4.68;;
30466;SDS011;17258;52.560;13.046;2023-02-28T19:51:26;5.10;;;3.73;;
30466;SDS011;17258;52.560;13.046;2023-02-28T20:01:27;4.07;;;3.33;;
30466;SDS011;17258;52.560;13.046;2023-02-28T20:11:28;5.83;;;4.10;;
30466;SDS011;17258;52.560;13.046;2023-02-28T20:21:28;4.33;;;4.03;;
30466;SDS011;17258;52.560;13.046;2023-02-28T20:31:29;5.93;;;5.33;;
30466;SDS011;17258;52.560;13.046;2023-02-28T20:41:30;5.72;;;4.40;;
30466;SDS011;17258;52.560;13.046;2023-02-28T20:51:30;8.00;;;5.40;;
30466;SDS011;17258;52.560;13.046;2023-02-28T21:01:31;7.20;;;6.20;;
30466;SDS011;17258;52.560;13.046;2023-02-28T21:11:33;8.20;;;6.25;;
30466;SDS011;17258;52.560;13.046;2023-02-28T21:21:37;9.40;;;7.00;;
30466;SDS011;17258;52.560;13.046;2023-02-28T21:31:42;8.13;;;6.77;;
30466;SDS011;17258;52.560;13.046;2023-02-28T21:41:43;8.00;;;7.20;;
30466;SDS011;17258;52.560;13.046;2023-02-28T21:51:44;6.47;;;5.93;;
30466;SDS011;17258;52.560;13.046;2023-02-28T22:01:45;7.43;;;6.20;;
30466;SDS011;17258;52.560;13.046;2023-02-28T22:11:48;10.68;;;7.43;;
30466;SDS011;17258;52.560;13.046;2023-02-28T22:21:49;8.60;;;7.65;;
30466;SDS011;17258;52.560;13.046;2023-02-28T22:31:52;6.95;;;6.35;;
30466;SDS011;17258;52.560;13.046;2023-02-28T22:41:53;8.70;;;6.27;;
30466;SDS011;17258;52.560;13.046;2023-02-28T22:51:55;8.52;;;6.28;;
30466;SDS011;17258;52.560;13.046;2023-02-28T23:01:55;8.77;;;6.83;;
30466;SDS011;17258;52.560;13.046;2023-02-28T23:11:56;6.23;;;5.73;;
30466;SDS011;17258;52.560;13.046;2023-02-28T23:21:57;7.57;;;6.50;;
30466;SDS011;17258;52.560;13.046;2023-02-28T23:31:59;11.02;;;5.70;;
30466;SDS011;17258;52.560;13.046;2023-02-28T23:42:00;9.60;;;6.15;;
30466;SDS011;17258;52.560;13.046;2023-02-28T23:52:01;11.70;;;6.53;;
